createdAt,value
2022-07-26T00:02:54.016Z,71.00
2022-07-26T00:08:10.891Z,71.40
2022-07-26T00:13:13.764Z,72.20
2022-07-26T00:18:17.222Z,73.10
2022-07-26T00:23:19.999Z,74.40
2022-07-26T00:28:22.720Z,74.60
2022-07-26T00:33:25.356Z,75.50
2022-07-26T00:38:27.954Z,76.10
2022-07-26T00:43:30.833Z,77.00
2022-07-26T00:48:33.477Z,77.80
2022-07-26T00:53:36.123Z,78.00
2022-07-26T00:58:38.755Z,76.10
2022-07-26T01:03:42.330Z,75.80
2022-07-26T01:08:44.970Z,75.50
2022-07-26T01:13:49.262Z,78.10
2022-07-26T01:18:52.223Z,80.30
2022-07-26T01:23:54.733Z,77.90
2022-07-26T01:28:57.283Z,79.00
2022-07-26T01:33:59.782Z,80.00
2022-07-26T01:39:02.295Z,79.50
2022-07-26T01:44:07.245Z,70.30
2022-07-26T01:49:10.214Z,67.80
2022-07-26T01:54:12.904Z,67.00
2022-07-26T01:59:15.406Z,66.90
2022-07-26T02:04:36.492Z,68.00
2022-07-26T02:09:40.023Z,67.70
2022-07-26T02:14:42.705Z,68.50
2022-07-26T02:19:45.221Z,67.20
2022-07-26T02:24:49.038Z,69.90
2022-07-26T02:29:52.066Z,72.30
2022-07-26T02:34:54.509Z,79.30
2022-07-26T02:39:57.007Z,82.50
2022-07-26T02:44:59.608Z,86.00
2022-07-26T02:50:02.104Z,90.00
2022-07-26T02:55:05.047Z,91.80
2022-07-26T03:00:09.869Z,93.80
2022-07-26T03:05:12.600Z,97.20
2022-07-26T03:10:15.775Z,99.90
2022-07-26T03:15:18.351Z,99.90
2022-07-26T03:20:21.009Z,99.90
2022-07-26T03:25:23.623Z,99.90
2022-07-26T03:30:26.573Z,99.90
2022-07-26T03:35:29.206Z,99.90
2022-07-26T03:40:31.946Z,99.90
2022-07-26T03:45:35.029Z,99.90
2022-07-26T03:50:37.741Z,99.90
2022-07-26T03:55:58.896Z,99.90
2022-07-26T04:01:01.433Z,99.90
2022-07-26T04:06:04.050Z,99.90
2022-07-26T04:11:06.644Z,99.90
2022-07-26T04:16:09.179Z,99.90
2022-07-26T04:21:11.709Z,99.90
2022-07-26T04:26:14.426Z,99.90
2022-07-26T04:31:17.272Z,99.90
2022-07-26T04:36:19.931Z,99.90
2022-07-26T04:41:22.407Z,99.90
2022-07-26T04:46:25.413Z,99.90
2022-07-26T04:51:28.031Z,99.90
2022-07-26T04:56:30.546Z,99.90
2022-07-26T05:01:33.342Z,99.90
2022-07-26T05:06:36.253Z,99.90
2022-07-26T05:11:38.749Z,99.90
2022-07-26T05:16:44.326Z,99.90
2022-07-26T05:21:48.531Z,99.90
2022-07-26T05:26:54.185Z,99.90
2022-07-26T05:32:14.488Z,99.90
2022-07-26T05:37:17.189Z,99.90
2022-07-26T05:42:19.752Z,99.90
2022-07-26T05:47:22.228Z,99.90
2022-07-26T05:52:24.749Z,99.90
2022-07-26T05:57:27.373Z,99.90
2022-07-26T06:02:30.029Z,99.90
2022-07-26T06:07:33.042Z,99.90
2022-07-26T06:12:35.588Z,99.90
2022-07-26T06:17:41.920Z,99.90
2022-07-26T06:22:44.582Z,99.90
2022-07-26T06:27:47.067Z,99.90
2022-07-26T06:32:49.715Z,99.90
2022-07-26T06:37:52.204Z,99.90
2022-07-26T06:42:54.800Z,99.90
2022-07-26T06:47:57.367Z,99.90
2022-07-26T06:52:59.843Z,99.90
2022-07-26T06:58:02.341Z,99.90
2022-07-26T07:03:04.818Z,99.90
2022-07-26T07:08:07.503Z,99.90
2022-07-26T07:13:10.052Z,99.90
2022-07-26T07:18:12.660Z,99.90
2022-07-26T07:23:15.255Z,99.90
2022-07-26T07:28:17.817Z,99.90
2022-07-26T07:33:23.037Z,99.90
2022-07-26T07:38:25.752Z,99.90
2022-07-26T07:43:28.349Z,99.90
2022-07-26T07:48:31.179Z,99.90
2022-07-26T07:53:34.221Z,99.90
2022-07-26T07:58:38.216Z,99.90
2022-07-26T08:03:40.993Z,99.90
2022-07-26T08:08:43.668Z,99.90
2022-07-26T08:13:48.071Z,99.90
2022-07-26T08:18:57.359Z,97.90
2022-07-26T08:24:00.727Z,96.70
2022-07-26T08:29:03.433Z,95.80
2022-07-26T08:34:05.949Z,93.60
2022-07-26T08:39:08.821Z,92.50
2022-07-26T08:44:12.287Z,92.10
2022-07-26T08:49:15.341Z,91.80
2022-07-26T08:54:18.012Z,90.90
2022-07-26T08:59:22.470Z,90.20
2022-07-26T09:04:43.140Z,91.30
2022-07-26T09:09:55.235Z,89.60
2022-07-26T09:14:59.492Z,89.70
2022-07-26T09:20:27.843Z,88.10
2022-07-26T09:25:41.926Z,86.90
2022-07-26T09:30:56.231Z,83.80
2022-07-26T09:36:06.946Z,84.30
2022-07-26T09:41:28.189Z,81.70
2022-07-26T09:46:32.669Z,79.70
2022-07-26T09:51:36.909Z,77.70
2022-07-26T09:56:50.397Z,78.90
2022-07-26T10:01:55.901Z,77.70
2022-07-26T10:06:58.473Z,75.50
2022-07-26T10:12:07.039Z,72.20
2022-07-26T10:17:30.952Z,72.60
2022-07-26T10:22:41.126Z,72.70
2022-07-26T10:27:54.727Z,70.70
2022-07-26T10:33:06.767Z,68.60
2022-07-26T10:38:12.776Z,68.70
2022-07-26T10:43:39.674Z,69.40
2022-07-26T10:49:05.285Z,63.80
2022-07-26T10:54:13.358Z,62.60
2022-07-26T10:59:54.970Z,64.00
2022-07-26T11:05:13.177Z,64.40
2022-07-26T11:10:15.929Z,62.80
2022-07-26T11:15:19.483Z,63.70
2022-07-26T11:20:29.544Z,65.80
2022-07-26T11:25:32.784Z,64.80
2022-07-26T11:30:35.426Z,64.00
2022-07-26T11:35:51.069Z,61.40
2022-07-26T11:40:53.709Z,60.00
2022-07-26T11:45:57.073Z,58.70
2022-07-26T11:51:20.813Z,58.50
2022-07-26T11:56:23.799Z,57.20
2022-07-26T12:01:27.601Z,55.30
2022-07-26T12:06:38.921Z,55.20
2022-07-26T12:11:43.267Z,56.10
2022-07-26T12:16:47.479Z,55.80
2022-07-26T12:21:59.272Z,57.20
2022-07-26T12:27:10.988Z,55.90
2022-07-26T12:32:15.487Z,54.00
2022-07-26T12:37:18.282Z,52.80
2022-07-26T12:42:22.497Z,53.30
2022-07-26T12:47:26.118Z,53.30
2022-07-26T12:52:29.665Z,53.60
2022-07-26T12:57:33.217Z,55.10
2022-07-26T13:02:42.109Z,54.90
2022-07-26T13:07:44.766Z,55.60
2022-07-26T13:12:47.352Z,56.40
2022-07-26T13:17:51.822Z,55.60
2022-07-26T13:22:54.451Z,54.20
2022-07-26T13:27:56.996Z,52.20
2022-07-26T13:32:59.925Z,50.10
2022-07-26T13:38:02.480Z,48.10
2022-07-26T13:43:05.641Z,46.60
2022-07-26T13:48:08.842Z,45.10
2022-07-26T13:53:14.845Z,44.10
2022-07-26T13:58:18.754Z,40.90
2022-07-26T14:03:21.431Z,40.20
2022-07-26T14:08:24.497Z,40.40
2022-07-26T14:13:27.412Z,41.70
2022-07-26T14:18:30.029Z,41.90
2022-07-26T14:23:32.621Z,42.90
2022-07-26T14:28:35.184Z,45.70
2022-07-26T14:33:37.779Z,46.50
2022-07-26T14:38:41.960Z,46.10
2022-07-26T14:43:45.401Z,45.30
2022-07-26T14:48:54.520Z,44.40
2022-07-26T14:53:57.620Z,44.30
2022-07-26T14:59:00.159Z,41.20
2022-07-26T15:04:04.024Z,36.30
2022-07-26T15:09:06.623Z,34.80
2022-07-26T15:14:09.521Z,36.50
2022-07-26T15:19:12.268Z,41.10
2022-07-26T15:24:15.024Z,43.90
2022-07-26T15:29:17.709Z,46.50
2022-07-26T15:34:20.272Z,48.00
2022-07-26T15:39:22.887Z,47.80
2022-07-26T15:44:25.758Z,47.50
2022-07-26T15:49:28.894Z,47.00
2022-07-26T15:54:31.913Z,46.90
2022-07-26T15:59:34.707Z,49.80
2022-07-26T16:04:37.343Z,50.40
2022-07-26T16:09:39.962Z,49.70
2022-07-26T16:14:42.625Z,47.70
2022-07-26T16:19:45.186Z,41.70
2022-07-26T16:24:47.801Z,44.10
2022-07-26T16:29:52.486Z,47.70
2022-07-26T16:34:55.226Z,49.90
2022-07-26T16:39:57.854Z,50.80
2022-07-26T16:45:00.372Z,51.20
2022-07-26T16:50:03.999Z,51.20
2022-07-26T16:55:10.851Z,52.30
2022-07-26T17:00:15.913Z,53.30
2022-07-26T17:05:18.692Z,54.30
2022-07-26T17:10:21.398Z,55.70
2022-07-26T17:15:23.996Z,59.10
2022-07-26T17:20:27.098Z,60.70
2022-07-26T17:25:29.729Z,61.80
2022-07-26T17:30:32.470Z,63.70
2022-07-26T17:35:34.998Z,66.10
2022-07-26T17:40:37.651Z,84.40
2022-07-26T17:45:41.695Z,99.90
2022-07-26T17:50:44.223Z,99.90
2022-07-26T17:55:47.022Z,99.90
2022-07-26T18:00:49.620Z,99.90
2022-07-26T18:05:52.374Z,99.90
2022-07-26T18:10:56.683Z,99.90
2022-07-26T18:16:02.857Z,99.90
2022-07-26T18:21:08.188Z,99.90
2022-07-26T18:26:10.819Z,99.90
2022-07-26T18:31:13.545Z,99.90
2022-07-26T18:36:16.321Z,99.90
2022-07-26T18:41:19.088Z,99.80
2022-07-26T18:46:21.723Z,99.90
2022-07-26T18:51:26.525Z,98.50
2022-07-26T18:56:29.340Z,99.90
2022-07-26T19:01:32.003Z,99.90
2022-07-26T19:06:35.656Z,99.90
2022-07-26T19:11:38.279Z,99.90
2022-07-26T19:16:40.817Z,99.90
2022-07-26T19:21:46.978Z,99.90
2022-07-26T19:26:49.488Z,99.90
2022-07-26T19:31:52.039Z,99.90
2022-07-26T19:36:54.695Z,99.90
2022-07-26T19:41:57.326Z,99.90
2022-07-26T19:46:59.881Z,99.90
2022-07-26T19:52:02.426Z,99.90
2022-07-26T19:57:05.076Z,99.90
2022-07-26T20:02:08.104Z,99.90
2022-07-26T20:07:10.862Z,99.90
2022-07-26T20:12:13.515Z,99.90
2022-07-26T20:17:16.414Z,99.90
2022-07-26T20:22:19.199Z,99.90
2022-07-26T20:27:24.988Z,99.90
2022-07-26T20:32:27.540Z,99.90
2022-07-26T20:37:30.299Z,99.90
2022-07-26T20:42:33.474Z,99.90
2022-07-26T20:47:40.229Z,99.90
2022-07-26T20:52:42.860Z,99.90
2022-07-26T20:57:46.422Z,99.90
2022-07-26T21:02:49.082Z,99.90
2022-07-26T21:07:56.546Z,99.90
2022-07-26T21:13:01.904Z,99.90
2022-07-26T21:18:04.691Z,99.90
2022-07-26T21:23:16.697Z,99.90
2022-07-26T21:28:21.479Z,99.90
2022-07-26T21:33:27.122Z,99.90
2022-07-26T21:38:32.031Z,99.90
2022-07-26T21:43:34.923Z,99.90
2022-07-26T21:48:38.779Z,99.90
2022-07-26T21:53:41.406Z,99.90
2022-07-26T21:58:44.256Z,99.90
2022-07-26T22:03:49.504Z,99.90
2022-07-26T22:08:52.113Z,99.90
2022-07-26T22:19:51.311Z,99.90
2022-07-26T22:24:53.779Z,99.90
2022-07-26T22:29:56.241Z,99.90
2022-07-26T22:34:58.999Z,99.90
2022-07-26T22:40:01.426Z,99.90
2022-07-26T22:45:10.021Z,99.90
2022-07-26T23:02:44.272Z,99.90
2022-07-26T23:07:47.887Z,99.90
2022-07-26T23:12:53.262Z,99.90
2022-07-26T23:17:55.654Z,99.90
2022-07-26T23:22:58.051Z,99.90
2022-07-26T23:28:00.501Z,99.90
2022-07-26T23:33:03.031Z,99.90
2022-07-26T23:38:05.463Z,99.90
2022-07-26T23:43:07.944Z,99.90
2022-07-26T23:48:10.378Z,99.90
2022-07-26T23:53:12.792Z,99.90
2022-07-26T23:58:15.192Z,99.90
